Time;durP1;ratioP1;P1;durP2;ratioP2;P2;SDS_P1;SDS_P2;PMS_P1;PMS_P2;Temp;Humidity;BMP_temperature;BMP_pressure;BME280_temperature;BME280_humidity;BME280_pressure;Samples;Min_cycle;Max_cycle;Signal;HPM_P1;HPM_P2
2021/11/07 00:01:28;;;;;;;7.33;4.60;;;11.40;85.50;;;;;;5057062;28;20430;-65
2021/11/07 00:04:01;;;;;;;6.10;3.93;;;11.40;86.00;;;;;;5057222;28;20434;-65
2021/11/07 00:06:33;;;;;;;4.90;4.10;;;11.40;86.20;;;;;;5057180;28;20453;-65
2021/11/07 00:09:07;;;;;;;7.53;4.40;;;11.40;86.20;;;;;;5057024;28;20548;-65
2021/11/07 00:11:36;;;;;;;9.27;4.73;;;11.30;86.80;;;;;;5056953;28;20527;-65
2021/11/07 00:14:06;;;;;;;5.87;4.73;;;11.30;86.50;;;;;;5056842;28;20822;-65
2021/11/07 00:16:35;;;;;;;6.73;4.50;;;11.30;87.00;;;;;;5057013;28;20522;-65
2021/11/07 00:19:09;;;;;;;4.93;4.53;;;11.20;87.40;;;;;;5056773;28;20449;-65
2021/11/07 00:21:43;;;;;;;9.10;4.80;;;11.20;88.70;;;;;;5056771;28;20472;-65
2021/11/07 00:24:12;;;;;;;10.00;4.80;;;11.10;89.60;;;;;;5056407;28;20430;-65
2021/11/07 00:26:49;;;;;;;7.90;5.10;;;11.10;89.60;;;;;;5056635;28;20552;-65
2021/11/07 00:29:21;;;;;;;8.40;5.03;;;11.00;90.00;;;;;;5056516;28;20469;-64
2021/11/07 00:31:52;;;;;;;8.83;5.13;;;11.00;90.20;;;;;;5056701;28;20434;-65
2021/11/07 00:35:01;;;;;;;6.33;5.50;;;10.90;90.50;;;;;;5056492;28;20487;-65
2021/11/07 00:37:32;;;;;;;8.90;5.60;;;10.90;90.90;;;;;;5056119;28;20937;-65
2021/11/07 00:40:08;;;;;;;7.93;5.63;;;10.90;91.50;;;;;;5056379;28;20429;-65
2021/11/07 00:42:43;;;;;;;8.13;5.93;;;10.80;91.90;;;;;;5036351;28;20521;-65
2021/11/07 00:45:22;;;;;;;9.23;6.47;;;10.70;92.40;;;;;;5036510;28;20430;-65
2021/11/07 00:47:58;;;;;;;11.43;6.47;;;10.60;92.70;;;;;;5036363;28;20442;-64
2021/11/07 00:50:28;;;;;;;9.23;6.20;;;10.50;92.90;;;;;;5035851;28;20976;-64
2021/11/07 00:52:59;;;;;;;9.20;5.50;;;10.50;93.50;;;;;;5036101;28;20506;-65
2021/11/07 00:55:33;;;;;;;6.97;6.03;;;10.50;93.30;;;;;;5036189;28;20449;-65
2021/11/07 00:58:06;;;;;;;8.27;5.50;;;10.40;93.40;;;;;;5036213;28;20454;-65
2021/11/07 01:00:46;;;;;;;12.87;6.10;;;10.40;93.50;;;;;;5035749;28;20913;-65
2021/11/07 01:03:16;;;;;;;12.03;6.87;;;10.50;93.90;;;;;;5035911;28;20474;-65
2021/11/07 01:05:43;;;;;;;7.30;6.20;;;10.40;94.00;;;;;;5035115;28;20434;-65
2021/11/07 01:08:10;;;;;;;6.60;5.93;;;10.50;94.30;;;;;;5035875;28;20453;-65
2021/11/07 01:10:37;;;;;;;9.80;6.30;;;10.40;94.50;;;;;;5035849;28;20977;-65
2021/11/07 01:13:05;;;;;;;9.20;5.90;;;10.50;94.70;;;;;;5035615;28;20481;-64
2021/11/07 01:15:36;;;;;;;9.20;6.13;;;10.40;94.90;;;;;;5035798;28;20458;-64
2021/11/07 01:18:03;;;;;;;8.73;6.37;;;10.40;95.10;;;;;;5035727;28;20449;-64
2021/11/07 01:20:31;;;;;;;11.07;7.03;;;10.30;95.20;;;;;;5035607;28;20777;-64
2021/11/07 01:23:02;;;;;;;10.53;5.80;;;10.20;95.40;;;;;;5035471;28;20470;-64
2021/11/07 01:25:32;;;;;;;8.70;5.70;;;10.20;95.50;;;;;;5035727;28;20449;-64
2021/11/07 01:28:00;;;;;;;6.40;5.17;;;10.30;95.70;;;;;;5036371;28;20504;-64
2021/11/07 01:30:30;;;;;;;6.60;5.53;;;10.30;95.90;;;;;;5035054;28;20569;-64
2021/11/07 01:33:03;;;;;;;8.90;5.80;;;10.20;95.80;;;;;;5035354;28;20502;-64
2021/11/07 01:35:36;;;;;;;10.23;5.87;;;10.20;96.10;;;;;;5035439;28;20435;-64
2021/11/07 01:38:12;;;;;;;7.20;5.53;;;10.20;96.20;;;;;;5035430;28;20439;-64
2021/11/07 01:40:42;;;;;;;9.80;6.03;;;10.20;96.40;;;;;;5039334;28;20585;-64
2021/11/07 01:43:10;;;;;;;8.47;5.73;;;10.30;96.60;;;;;;5055024;28;20885;-64
2021/11/07 01:45:39;;;;;;;10.37;5.67;;;10.30;96.70;;;;;;5055041;28;20450;-64
2021/11/07 01:48:10;;;;;;;8.90;6.50;;;10.20;96.60;;;;;;5055133;28;20446;-64
2021/11/07 01:50:40;;;;;;;11.67;6.30;;;10.20;97.00;;;;;;5055244;28;20472;-64
2021/11/07 01:53:16;;;;;;;8.40;6.13;;;10.20;97.10;;;;;;5054935;28;20477;-64
2021/11/07 01:55:43;;;;;;;7.93;5.83;;;10.20;97.10;;;;;;5054991;28;20434;-64
2021/11/07 01:58:10;;;;;;;10.70;6.70;;;10.20;97.40;;;;;;5054550;28;20937;-64
2021/11/07 02:00:37;;;;;;;6.30;5.67;;;10.10;97.70;;;;;;5055141;28;20472;-64
2021/11/07 02:03:04;;;;;;;8.50;6.70;;;10.10;97.90;;;;;;5054865;28;20465;-64
2021/11/07 02:05:32;;;;;;;7.60;6.37;;;10.00;98.10;;;;;;5054349;28;20937;-64
2021/11/07 02:07:59;;;;;;;7.40;5.97;;;10.00;98.30;;;;;;5054541;28;20457;-64
2021/11/07 02:10:26;;;;;;;7.27;6.50;;;10.00;98.40;;;;;;5054592;28;20473;-64
2021/11/07 02:12:52;;;;;;;7.13;5.50;;;10.00;98.60;;;;;;5054637;28;20473;-64
2021/11/07 02:15:21;;;;;;;7.53;6.70;;;9.90;99.30;;;;;;5054529;28;20449;-64
2021/11/07 02:17:49;;;;;;;7.17;5.87;;;9.90;99.50;;;;;;5055349;28;20509;-64
2021/11/07 02:20:22;;;;;;;9.70;6.63;;;10.00;99.00;;;;;;5054177;28;20964;-64
2021/11/07 02:22:50;;;;;;;7.40;6.70;;;9.90;99.50;;;;;;5054375;28;20469;-64
2021/11/07 02:25:17;;;;;;;7.27;6.67;;;9.90;99.70;;;;;;5054363;28;20449;-64
2021/11/07 02:27:44;;;;;;;9.43;6.80;;;10.00;99.10;;;;;;5054150;28;20972;-64
2021/11/07 02:30:14;;;;;;;9.77;6.93;;;10.00;99.30;;;;;;5054052;28;20477;-64
2021/11/07 02:32:41;;;;;;;8.23;7.00;;;10.00;99.20;;;;;;5054339;28;20480;-64
2021/11/07 02:35:08;;;;;;;13.60;7.60;;;10.00;99.30;;;;;;5053922;28;20441;-64
2021/11/07 02:37:37;;;;;;;9.93;7.80;;;10.00;99.40;;;;;;5053696;28;20958;-64
2021/11/07 02:40:06;;;;;;;7.67;6.87;;;9.90;99.90;;;;;;5054089;28;20446;-64
2021/11/07 02:42:33;;;;;;;8.53;7.70;;;9.90;99.90;;;;;;5053547;28;20536;-64
2021/11/07 02:45:00;;;;;;;9.03;7.20;;;9.90;99.90;;;;;;5053918;28;20450;-64
2021/11/07 02:47:27;;;;;;;9.10;7.83;;;9.90;99.90;;;;;;5053552;28;20963;-64
2021/11/07 02:49:54;;;;;;;7.87;7.10;;;9.90;99.90;;;;;;5053901;28;20567;-64
2021/11/07 02:52:21;;;;;;;8.60;7.70;;;10.00;99.50;;;;;;5053513;28;20981;-64
2021/11/07 02:54:50;;;;;;;8.70;7.90;;;10.00;99.80;;;;;;5054064;28;20434;-64
2021/11/07 02:57:19;;;;;;;9.07;7.43;;;10.00;99.40;;;;;;5054021;28;20516;-64
2021/11/07 02:59:48;;;;;;;8.60;7.80;;;10.00;99.40;;;;;;5053683;28;20437;-64
2021/11/07 03:02:15;;;;;;;8.70;7.90;;;10.00;99.60;;;;;;5053721;28;20473;-64
2021/11/07 03:04:43;;;;;;;8.50;7.80;;;10.00;99.50;;;;;;5053662;28;20450;-64
2021/11/07 03:07:10;;;;;;;10.23;7.90;;;10.00;99.60;;;;;;5053618;28;20445;-64
2021/11/07 03:09:38;;;;;;;13.90;9.00;;;10.00;99.60;;;;;;5053519;28;20520;-64
2021/11/07 03:12:08;;;;;;;10.27;8.97;;;10.00;99.70;;;;;;5053119;28;20462;-64
2021/11/07 03:14:37;;;;;;;10.97;9.73;;;10.00;99.80;;;;;;5053524;28;20446;-64
2021/11/07 03:17:05;;;;;;;10.03;9.10;;;10.00;99.70;;;;;;5053398;28;20449;-64
2021/11/07 03:19:33;;;;;;;10.03;9.10;;;10.00;99.80;;;;;;5053484;28;20454;-64
2021/11/07 03:22:01;;;;;;;11.17;10.27;;;10.00;99.70;;;;;;5053107;28;20476;-64
2021/11/07 03:24:29;;;;;;;10.00;9.10;;;10.00;99.80;;;;;;5053675;28;20445;-64
2021/11/07 03:26:57;;;;;;;9.63;8.83;;;10.00;99.80;;;;;;5053424;28;20454;-64
2021/11/07 03:29:32;;;;;;;9.13;7.67;;;10.10;99.80;;;;;;5052839;28;20802;-64
2021/11/07 03:32:03;;;;;;;9.47;8.57;;;10.10;99.60;;;;;;5053326;28;20476;-64
2021/11/07 03:34:32;;;;;;;11.20;8.77;;;10.10;99.80;;;;;;5053423;28;20780;-64
2021/11/07 03:37:01;;;;;;;8.37;7.37;;;10.00;99.80;;;;;;5053500;28;20515;-64
2021/11/07 03:39:30;;;;;;;8.77;7.87;;;10.10;99.70;;;;;;5053224;28;20441;-64
2021/11/07 03:41:57;;;;;;;8.47;7.77;;;10.10;99.50;;;;;;5052920;28;20482;-64
2021/11/07 03:44:25;;;;;;;8.30;7.50;;;10.10;99.80;;;;;;5053021;28;20456;-64
2021/11/07 03:46:54;;;;;;;8.20;6.60;;;10.10;99.80;;;;;;5053312;28;20453;-64
2021/11/07 03:49:22;;;;;;;8.20;6.53;;;10.20;99.60;;;;;;5053089;28;20445;-64
2021/11/07 03:51:48;;;;;;;8.50;7.60;;;10.20;99.60;;;;;;5053003;28;20482;-64
2021/11/07 03:54:17;;;;;;;7.60;6.90;;;10.20;99.40;;;;;;5053111;28;20441;-64
2021/11/07 03:56:45;;;;;;;10.00;7.50;;;10.20;99.60;;;;;;5053088;28;20450;-64
2021/11/07 03:59:12;;;;;;;7.87;6.80;;;10.20;99.40;;;;;;5053103;28;20468;-64
2021/11/07 04:01:40;;;;;;;7.00;6.50;;;10.20;99.40;;;;;;5052950;28;20445;-65
2021/11/07 04:04:08;;;;;;;8.33;7.53;;;10.20;99.50;;;;;;5053069;28;20834;-64
2021/11/07 04:06:36;;;;;;;8.40;7.70;;;10.20;99.30;;;;;;5052689;28;20937;-64
2021/11/07 04:09:03;;;;;;;7.90;7.20;;;10.30;99.40;;;;;;5052956;28;20453;-64
2021/11/07 04:11:30;;;;;;;8.27;7.47;;;10.30;99.40;;;;;;5052783;28;20487;-64
2021/11/07 04:13:57;;;;;;;9.03;8.10;;;10.30;99.40;;;;;;5052881;28;20433;-64
2021/11/07 04:16:24;;;;;;;8.97;7.50;;;10.40;99.40;;;;;;5052646;28;20933;-64
2021/11/07 04:18:52;;;;;;;8.90;8.07;;;10.40;99.30;;;;;;5052628;28;20937;-64
2021/11/07 04:21:20;;;;;;;13.13;8.23;;;10.30;99.20;;;;;;5052520;28;20446;-64
2021/11/07 04:23:47;;;;;;;9.30;8.50;;;10.30;99.20;;;;;;5052600;28;20477;-64
2021/11/07 04:26:14;;;;;;;10.20;7.77;;;10.30;99.10;;;;;;5052764;28;20448;-64
2021/11/07 04:28:41;;;;;;;8.90;8.10;;;10.40;99.30;;;;;;5053078;28;20456;-64
2021/11/07 04:31:07;;;;;;;9.70;8.80;;;10.40;99.40;;;;;;5052246;28;20481;-64
2021/11/07 04:33:34;;;;;;;10.10;9.10;;;10.40;99.30;;;;;;5052652;28;20470;-64
2021/11/07 04:36:03;;;;;;;11.73;10.73;;;10.40;99.30;;;;;;5052632;28;20536;-64
2021/11/07 04:38:30;;;;;;;10.17;9.27;;;10.40;99.20;;;;;;5052686;28;20448;-64
2021/11/07 04:40:56;;;;;;;11.03;9.90;;;10.40;99.30;;;;;;5053485;28;20835;-64
2021/11/07 04:43:23;;;;;;;10.40;9.50;;;10.50;99.30;;;;;;5056279;28;20465;-64
2021/11/07 04:45:51;;;;;;;10.40;9.50;;;10.50;99.20;;;;;;5055894;28;20445;-64
2021/11/07 04:48:18;;;;;;;10.53;9.60;;;10.50;99.20;;;;;;5056166;28;20449;-64
2021/11/07 04:50:46;;;;;;;11.40;10.50;;;10.50;99.20;;;;;;5056087;28;20481;-64
2021/11/07 04:53:20;;;;;;;11.50;10.50;;;10.50;99.10;;;;;;5055941;28;20465;-64
2021/11/07 04:55:48;;;;;;;11.23;10.30;;;10.60;99.10;;;;;;5055666;28;20470;-64
2021/11/07 04:58:16;;;;;;;11.00;10.10;;;10.50;99.00;;;;;;5055854;28;20445;-64
2021/11/07 05:00:43;;;;;;;10.23;9.40;;;10.60;99.00;;;;;;5056016;28;20453;-64
2021/11/07 05:03:11;;;;;;;12.87;11.67;;;10.60;99.00;;;;;;5055813;28;20477;-64
2021/11/07 05:05:39;;;;;;;10.70;9.60;;;10.70;99.00;;;;;;5055566;28;20956;-64
2021/11/07 05:08:07;;;;;;;10.90;9.80;;;10.70;99.00;;;;;;5055917;28;20472;-64
2021/11/07 05:10:35;;;;;;;12.63;11.57;;;10.70;99.10;;;;;;5055421;28;20477;-64
2021/11/07 05:13:03;;;;;;;12.80;11.17;;;10.70;98.90;;;;;;5055683;28;20462;-64
2021/11/07 05:15:30;;;;;;;12.03;11.03;;;10.70;98.80;;;;;;5055712;28;20499;-64
2021/11/07 05:17:57;;;;;;;12.70;11.50;;;10.70;98.80;;;;;;5055650;28;20445;-64
2021/11/07 05:20:24;;;;;;;15.33;12.23;;;10.70;98.90;;;;;;5055510;28;20461;-65
2021/11/07 05:22:51;;;;;;;12.60;11.60;;;10.70;99.00;;;;;;5055108;28;20992;-64
2021/11/07 05:25:17;;;;;;;11.63;10.70;;;10.70;99.00;;;;;;5055841;28;20437;-64
2021/11/07 05:27:45;;;;;;;13.07;12.07;;;10.70;99.00;;;;;;5055414;28;20449;-64
2021/11/07 05:30:14;;;;;;;12.60;11.50;;;10.70;99.10;;;;;;5055335;28;20441;-64
2021/11/07 05:32:41;;;;;;;12.70;10.53;;;10.70;99.20;;;;;;5054985;28;20466;-64
2021/11/07 05:35:10;;;;;;;12.53;11.33;;;10.70;99.10;;;;;;5054992;28;20450;-64
2021/11/07 05:37:37;;;;;;;11.17;10.20;;;10.70;99.30;;;;;;5055266;28;20446;-64
2021/11/07 05:40:05;;;;;;;12.17;10.63;;;10.70;99.30;;;;;;5054875;28;20809;-64
2021/11/07 05:42:31;;;;;;;11.83;10.93;;;10.70;99.20;;;;;;5055018;28;20477;-64
2021/11/07 05:45:00;;;;;;;10.60;9.80;;;10.80;99.30;;;;;;5055097;28;20453;-64
2021/11/07 05:47:27;;;;;;;10.70;9.80;;;10.80;99.30;;;;;;5054839;28;20446;-64
2021/11/07 05:49:54;;;;;;;9.93;9.13;;;10.80;99.10;;;;;;5054965;28;20553;-64
2021/11/07 05:52:21;;;;;;;9.83;8.93;;;10.80;99.10;;;;;;5054588;28;20485;-64
2021/11/07 05:54:48;;;;;;;10.30;9.30;;;10.80;99.20;;;;;;5055006;28;20497;-64
2021/11/07 05:57:15;;;;;;;10.60;9.70;;;10.90;99.10;;;;;;5054443;28;20453;-64
2021/11/07 05:59:41;;;;;;;9.60;8.80;;;10.80;99.00;;;;;;5054821;28;20453;-64
2021/11/07 06:02:10;;;;;;;9.33;8.53;;;10.80;98.90;;;;;;5054681;28;20473;-64
2021/11/07 06:04:37;;;;;;;8.37;7.67;;;10.90;98.90;;;;;;5054784;28;20430;-64
2021/11/07 06:07:04;;;;;;;8.47;7.73;;;10.90;99.10;;;;;;5054635;28;20453;-64
2021/11/07 06:09:31;;;;;;;8.17;7.37;;;10.90;99.00;;;;;;5054724;28;20453;-64
2021/11/07 06:11:58;;;;;;;10.97;7.63;;;10.90;99.10;;;;;;5054334;28;20492;-64
2021/11/07 06:14:25;;;;;;;8.70;7.87;;;10.90;99.00;;;;;;5054601;28;20453;-64
2021/11/07 06:16:51;;;;;;;8.20;7.40;;;10.90;98.90;;;;;;5054512;28;20450;-64
2021/11/07 06:19:19;;;;;;;10.40;7.10;;;11.00;99.00;;;;;;5054520;28;20452;-64
2021/11/07 06:21:46;;;;;;;8.20;7.37;;;11.00;99.00;;;;;;5054340;28;20438;-64
2021/11/07 06:24:16;;;;;;;8.17;7.47;;;11.00;98.80;;;;;;5054405;28;20449;-64
2021/11/07 06:26:43;;;;;;;7.50;6.50;;;11.00;98.90;;;;;;5054378;28;20450;-64
2021/11/07 06:29:09;;;;;;;7.20;6.57;;;11.00;98.80;;;;;;5054393;28;20433;-64
2021/11/07 06:31:36;;;;;;;8.17;7.37;;;11.00;98.80;;;;;;5054133;28;20485;-65
2021/11/07 06:34:05;;;;;;;7.20;6.50;;;11.00;98.80;;;;;;5053848;28;20960;-64
2021/11/07 06:36:33;;;;;;;7.47;6.87;;;11.10;98.80;;;;;;5054975;28;20532;-64
2021/11/07 06:39:01;;;;;;;7.53;6.87;;;11.10;98.90;;;;;;5054138;28;20446;-64
2021/11/07 06:41:28;;;;;;;7.40;6.70;;;11.10;98.90;;;;;;5053732;28;20560;-64
2021/11/07 06:43:55;;;;;;;6.90;6.20;;;11.20;98.90;;;;;;5053641;28;20984;-64
2021/11/07 06:46:22;;;;;;;7.30;6.60;;;11.20;98.90;;;;;;5054007;28;20445;-64
2021/11/07 06:48:49;;;;;;;10.03;8.90;;;11.30;98.90;;;;;;5053939;28;20452;-64
2021/11/07 06:51:17;;;;;;;8.77;7.97;;;11.30;98.80;;;;;;5053474;28;20484;-64
2021/11/07 06:53:45;;;;;;;9.53;8.57;;;11.30;98.70;;;;;;5053517;28;20987;-64
2021/11/07 06:56:12;;;;;;;7.93;7.00;;;11.30;98.70;;;;;;5054110;28;20422;-64
2021/11/07 06:58:39;;;;;;;10.90;8.10;;;11.30;98.60;;;;;;5053724;28;20442;-64
2021/11/07 07:01:06;;;;;;;9.30;8.40;;;11.30;98.60;;;;;;5053772;28;20448;-64
2021/11/07 07:03:33;;;;;;;12.67;8.70;;;11.30;98.80;;;;;;5052908;28;20472;-64
2021/11/07 07:06:00;;;;;;;10.40;9.30;;;11.30;98.80;;;;;;5053664;28;20808;-64
2021/11/07 07:08:33;;;;;;;10.17;8.97;;;11.20;98.80;;;;;;5053524;28;20544;-64
2021/11/07 07:11:05;;;;;;;10.60;9.50;;;11.30;99.00;;;;;;5053535;28;21010;-64
2021/11/07 07:13:35;;;;;;;9.57;8.67;;;11.30;98.90;;;;;;5053244;28;20980;-64
2021/11/07 07:16:12;;;;;;;10.23;8.50;;;11.30;98.90;;;;;;5053324;28;20901;-64
2021/11/07 07:18:49;;;;;;;9.60;8.60;;;11.40;98.90;;;;;;5053515;28;20438;-64
2021/11/07 07:21:27;;;;;;;13.70;9.27;;;11.30;98.50;;;;;;5053471;28;20430;-64
2021/11/07 07:26:50;;;;;;;10.50;9.50;;;11.30;98.50;;;;;;5003271;28;20474;-64
2021/11/07 07:32:21;;;;;;;12.43;9.33;;;11.30;98.70;;;;;;5012748;28;20484;-64
2021/11/07 07:34:51;;;;;;;11.00;10.00;;;11.30;98.70;;;;;;5053237;28;20437;-64
2021/11/07 07:37:18;;;;;;;10.70;8.57;;;11.40;98.80;;;;;;5053180;28;20439;-64
2021/11/07 07:39:46;;;;;;;10.43;9.40;;;11.40;98.70;;;;;;5053046;28;20528;-65
2021/11/07 07:42:14;;;;;;;9.70;8.00;;;11.40;98.20;;;;;;5052771;28;20480;-65
2021/11/07 07:44:41;;;;;;;9.63;8.67;;;11.40;98.20;;;;;;5053114;28;20823;-65
2021/11/07 07:47:08;;;;;;;10.47;9.47;;;11.40;98.30;;;;;;5052797;28;20941;-65
2021/11/07 07:49:35;;;;;;;10.03;8.97;;;11.50;98.30;;;;;;5053136;28;20449;-64
2021/11/07 07:52:02;;;;;;;8.60;7.80;;;11.40;98.20;;;;;;5053031;28;20481;-65
2021/11/07 07:54:28;;;;;;;9.87;9.07;;;11.50;98.10;;;;;;5052799;28;20452;-64
2021/11/07 07:56:55;;;;;;;11.50;9.80;;;11.50;98.00;;;;;;5053163;28;20536;-64
2021/11/07 07:59:23;;;;;;;9.87;8.50;;;11.50;98.00;;;;;;5052718;28;20968;-64
2021/11/07 08:01:52;;;;;;;10.20;8.03;;;11.60;97.90;;;;;;5053134;28;20445;-65
2021/11/07 08:04:18;;;;;;;10.03;9.03;;;11.50;97.80;;;;;;5053080;28;20485;-64
2021/11/07 08:06:45;;;;;;;9.63;8.70;;;11.60;97.80;;;;;;5052727;28;20441;-64
2021/11/07 08:09:12;;;;;;;9.13;8.33;;;11.60;97.80;;;;;;5052712;28;20449;-64
2021/11/07 08:11:39;;;;;;;10.00;8.97;;;11.70;97.70;;;;;;5052007;28;20477;-65
2021/11/07 08:14:06;;;;;;;10.70;8.53;;;11.70;97.60;;;;;;5052854;28;20456;-64
2021/11/07 08:16:35;;;;;;;11.30;9.10;;;11.70;97.50;;;;;;5057176;28;20430;-64
2021/11/07 08:19:01;;;;;;;11.50;8.43;;;11.70;97.50;;;;;;5056790;28;20499;-64
2021/11/07 08:21:31;;;;;;;8.40;7.70;;;11.80;97.40;;;;;;5056722;28;20447;-64
2021/11/07 08:23:58;;;;;;;10.93;7.90;;;11.80;97.30;;;;;;5056685;28;20476;-64
2021/11/07 08:26:25;;;;;;;8.43;7.53;;;11.80;97.30;;;;;;5057105;28;20452;-64
2021/11/07 08:28:53;;;;;;;8.70;7.40;;;11.80;97.10;;;;;;5056415;28;20955;-64
2021/11/07 08:31:21;;;;;;;12.30;8.23;;;11.80;97.10;;;;;;5056367;28;20445;-64
2021/11/07 08:33:50;;;;;;;14.03;6.77;;;11.80;96.90;;;;;;5056344;28;20504;-64
2021/11/07 08:36:19;;;;;;;14.70;7.90;;;11.80;96.80;;;;;;5056349;28;20488;-64
2021/11/07 08:38:51;;;;;;;10.47;6.33;;;11.90;96.60;;;;;;5056501;28;20445;-64
2021/11/07 08:41:20;;;;;;;17.07;8.50;;;11.90;96.80;;;;;;5055838;28;20464;-64
2021/11/07 09:00:20;;;;;;;8.30;6.83;;;12.20;96.20;;;;;;5056194;28;20449;-64
2021/11/07 09:03:13;;;;;;;9.80;6.93;;;12.20;96.20;;;;;;5055927;28;20465;-65
2021/11/07 09:05:54;;;;;;;11.77;7.70;;;12.20;95.90;;;;;;5056118;28;20430;-64
2021/11/07 09:08:23;;;;;;;14.17;7.47;;;12.20;95.60;;;;;;5055775;28;20440;-64
2021/11/07 09:10:50;;;;;;;13.77;6.60;;;12.30;95.60;;;;;;5055751;28;20450;-64
2021/11/07 09:13:17;;;;;;;16.60;6.83;;;12.20;95.20;;;;;;5055415;28;20856;-64
2021/11/07 09:15:47;;;;;;;8.57;5.73;;;12.20;94.80;;;;;;5055331;28;20450;-64
2021/11/07 09:18:14;;;;;;;13.57;5.77;;;12.30;94.70;;;;;;5055686;28;20833;-64
2021/11/07 09:20:49;;;;;;;11.63;5.10;;;12.30;94.00;;;;;;5055642;28;20456;-64
2021/11/07 09:23:19;;;;;;;15.40;5.10;;;12.30;93.80;;;;;;5055562;28;20592;-64
2021/11/07 09:25:49;;;;;;;12.07;5.70;;;12.40;94.10;;;;;;5054878;28;20807;-64
2021/11/07 09:28:20;;;;;;;10.63;4.70;;;12.50;93.80;;;;;;5055407;28;20430;-64
2021/11/07 09:30:55;;;;;;;15.20;4.60;;;12.60;93.90;;;;;;5055152;28;20490;-65
2021/11/07 09:33:29;;;;;;;14.30;4.80;;;12.60;92.70;;;;;;5055195;28;20527;-65
2021/11/07 09:38:46;;;;;;;12.17;4.90;;;12.70;92.20;;;;;;5053130;28;20433;-64
2021/11/07 09:41:18;;;;;;;12.33;4.33;;;12.80;92.10;;;;;;5055118;28;20519;-65
2021/11/07 09:43:48;;;;;;;15.10;4.97;;;12.80;91.90;;;;;;5054951;28;20530;-65
2021/11/07 09:46:30;;;;;;;10.43;4.23;;;12.90;91.80;;;;;;5054202;28;21006;-65
2021/11/07 09:49:01;;;;;;;12.07;3.67;;;12.90;91.60;;;;;;5054495;28;20464;-64
2021/11/07 09:51:33;;;;;;;12.43;5.30;;;12.80;90.90;;;;;;5054544;28;20425;-64
2021/11/07 09:54:01;;;;;;;10.63;4.63;;;12.70;91.70;;;;;;5054848;28;20513;-65
2021/11/07 09:56:27;;;;;;;15.77;4.03;;;12.80;92.40;;;;;;5054800;28;20539;-64
2021/11/07 09:58:56;;;;;;;20.93;4.53;;;12.70;91.20;;;;;;5054799;28;20454;-65
2021/11/07 10:01:23;;;;;;;10.80;3.80;;;12.70;91.10;;;;;;5054861;28;20869;-65
2021/11/07 10:03:51;;;;;;;10.77;3.67;;;12.60;91.30;;;;;;5054654;28;20461;-65
2021/11/07 10:06:29;;;;;;;14.17;4.53;;;12.60;91.30;;;;;;5054847;28;20480;-64
2021/11/07 10:08:58;;;;;;;8.33;3.97;;;12.60;91.40;;;;;;5054838;28;20495;-64
2021/11/07 10:11:30;;;;;;;16.10;4.60;;;12.60;91.10;;;;;;5054364;28;20452;-65
2021/11/07 10:13:59;;;;;;;11.70;3.63;;;12.60;90.50;;;;;;5054271;28;20453;-65
2021/11/07 10:16:35;;;;;;;18.47;5.40;;;12.70;90.40;;;;;;5054409;28;20449;-65
2021/11/07 10:19:15;;;;;;;13.40;4.20;;;12.70;89.90;;;;;;5054213;28;20429;-65
2021/11/07 10:21:48;;;;;;;12.03;3.80;;;12.60;90.70;;;;;;5054032;28;20520;-64
2021/11/07 10:24:21;;;;;;;10.80;4.07;;;12.60;90.70;;;;;;5054529;28;20430;-66
2021/11/07 10:26:54;;;;;;;18.73;5.17;;;12.40;91.10;;;;;;5054179;28;20440;-66
2021/11/07 10:29:23;;;;;;;16.40;4.47;;;12.30;91.20;;;;;;5054476;28;20429;-66
2021/11/07 10:31:57;;;;;;;14.90;4.20;;;12.10;90.70;;;;;;5053725;28;20441;-66
2021/11/07 10:37:29;;;;;;;11.70;4.10;;;12.10;91.10;;;;;;5039939;28;20426;-66
2021/11/07 10:40:11;;;;;;;17.27;3.70;;;12.30;90.90;;;;;;5053518;28;20785;-65
2021/11/07 10:42:51;;;;;;;15.70;3.40;;;12.20;89.50;;;;;;5054016;28;20527;-66
2021/11/07 10:45:24;;;;;;;16.13;4.53;;;12.20;90.00;;;;;;5053725;28;20885;-66
2021/11/07 10:53:39;;;;;;;13.13;2.90;;;12.10;87.80;;;;;;5052383;28;20603;-66
2021/11/07 10:56:10;;;;;;;9.63;3.27;;;12.10;87.90;;;;;;5053436;28;20937;-66
2021/11/07 10:58:39;;;;;;;15.70;2.87;;;12.30;87.50;;;;;;5053519;28;20525;-66
2021/11/07 11:01:08;;;;;;;9.50;2.77;;;12.60;85.70;;;;;;5053779;28;20442;-64
2021/11/07 11:03:42;;;;;;;12.00;4.10;;;13.20;84.20;;;;;;5053370;28;20466;-65
2021/11/07 11:06:12;;;;;;;14.10;2.47;;;13.70;81.30;;;;;;5053917;28;20426;-65
2021/11/07 11:08:43;;;;;;;9.30;2.97;;;14.10;77.50;;;;;;5054145;28;20453;-65
2021/11/07 11:11:18;;;;;;;10.97;2.47;;;14.50;76.30;;;;;;5053674;28;20433;-65
2021/11/07 11:13:50;;;;;;;11.87;3.50;;;15.00;74.80;;;;;;5053250;28;20996;-64
2021/11/07 11:16:32;;;;;;;9.00;3.03;;;15.40;71.60;;;;;;5053380;28;20476;-64
2021/11/07 11:19:27;;;;;;;12.47;4.07;;;15.80;69.80;;;;;;5054082;28;20788;-64
2021/11/07 11:33:17;;;;;;;12.20;3.70;;;13.80;76.30;;;;;;5010110;28;20931;-65
2021/11/07 11:35:49;;;;;;;13.75;3.75;;;13.70;78.30;;;;;;5052955;28;20543;-65
2021/11/07 11:38:20;;;;;;;14.73;3.30;;;13.80;78.90;;;;;;5053044;28;20389;-65
2021/11/07 11:40:55;;;;;;;13.13;4.10;;;14.00;77.70;;;;;;5053202;28;20511;-65
2021/11/07 11:43:29;;;;;;;11.70;3.23;;;14.10;76.20;;;;;;5053223;28;20476;-65
2021/11/07 11:46:03;;;;;;;11.80;2.97;;;14.10;74.00;;;;;;5053332;28;20472;-64
2021/11/07 11:54:23;;;;;;;8.67;2.77;;;13.40;75.10;;;;;;5053139;28;20476;-64
2021/11/07 11:57:12;;;;;;;8.73;3.30;;;13.30;75.40;;;;;;5057069;28;20803;-64
2021/11/07 11:59:47;;;;;;;16.90;4.07;;;13.20;75.30;;;;;;5057342;28;20436;-64
2021/11/07 12:02:20;;;;;;;11.23;2.80;;;13.30;76.20;;;;;;5057214;28;20469;-64
2021/11/07 12:05:09;;;;;;;10.87;2.73;;;13.20;74.80;;;;;;5057050;28;20483;-64
2021/11/07 12:07:41;;;;;;;11.40;3.20;;;13.20;73.80;;;;;;5057071;28;20495;-64
2021/11/07 12:10:26;;;;;;;12.53;3.10;;;13.50;74.10;;;;;;5056982;28;20436;-64
2021/11/07 12:12:57;;;;;;;9.90;3.00;;;14.00;72.50;;;;;;5056931;28;20492;-64
2021/11/07 12:15:36;;;;;;;10.17;2.87;;;14.70;70.20;;;;;;5057056;28;20491;-64
2021/11/07 12:18:05;;;;;;;14.27;3.87;;;15.00;68.10;;;;;;5056944;28;20529;-64
2021/11/07 12:20:35;;;;;;;7.83;3.60;;;15.00;66.00;;;;;;5056525;28;20796;-65
2021/11/07 12:23:17;;;;;;;17.13;3.70;;;14.90;65.50;;;;;;5056676;28;20500;-65
2021/11/07 12:25:45;;;;;;;17.33;3.93;;;14.70;67.20;;;;;;5056877;28;20441;-65
2021/11/07 12:28:12;;;;;;;7.23;2.60;;;14.40;67.20;;;;;;5056309;28;20453;-65
2021/11/07 12:30:41;;;;;;;17.43;3.50;;;14.20;68.00;;;;;;5056523;28;20442;-65
2021/11/07 12:33:12;;;;;;;10.37;3.13;;;14.00;70.30;;;;;;5056208;28;20575;-65
2021/11/07 12:35:45;;;;;;;12.87;3.07;;;13.90;71.20;;;;;;5056326;28;20932;-65
2021/11/07 12:41:18;;;;;;;10.53;2.63;;;13.70;72.70;;;;;;4964111;28;20929;-66
2021/11/07 12:43:47;;;;;;;12.27;3.07;;;13.80;73.40;;;;;;5056527;28;20469;-65
2021/11/07 12:46:28;;;;;;;16.10;3.63;;;13.70;72.40;;;;;;5056096;28;20450;-65
2021/11/07 12:48:56;;;;;;;11.70;3.60;;;13.80;73.30;;;;;;5056766;28;20450;-65
2021/11/07 12:51:35;;;;;;;17.37;3.10;;;13.70;72.90;;;;;;5056145;28;20464;-65
2021/11/07 12:54:09;;;;;;;10.77;3.03;;;13.60;74.10;;;;;;5056010;28;20491;-65
2021/11/07 12:56:52;;;;;;;15.10;3.83;;;13.60;74.90;;;;;;5056096;28;20446;-65
2021/11/07 12:59:26;;;;;;;11.27;3.60;;;13.70;75.40;;;;;;5056161;28;20461;-65
2021/11/07 13:02:19;;;;;;;10.27;3.17;;;13.70;75.20;;;;;;5054928;28;20838;-65
2021/11/07 13:04:51;;;;;;;12.33;3.63;;;13.80;73.50;;;;;;5056057;28;20430;-65
2021/11/07 13:07:28;;;;;;;12.80;3.50;;;13.70;72.90;;;;;;5055925;28;20434;-65
2021/11/07 13:09:58;;;;;;;9.33;2.87;;;13.70;74.40;;;;;;5055907;28;20437;-65
2021/11/07 13:12:29;;;;;;;13.90;2.80;;;14.00;73.80;;;;;;5055631;28;20473;-65
2021/11/07 13:24:11;;;;;;;10.90;3.23;;;13.80;72.30;;;;;;5055553;28;20525;-65
2021/11/07 13:26:48;;;;;;;11.07;3.10;;;13.80;71.90;;;;;;5055566;28;20436;-65
2021/11/07 13:32:29;;;;;;;7.27;2.53;;;13.70;70.80;;;;;;5047050;28;20515;-65
2021/11/07 13:35:11;;;;;;;18.50;3.10;;;13.60;71.90;;;;;;5055186;28;20986;-64
2021/11/07 13:37:44;;;;;;;14.27;3.30;;;13.60;73.10;;;;;;5055552;28;20444;-64
2021/11/07 13:40:20;;;;;;;11.80;2.83;;;13.90;72.40;;;;;;5055026;28;20437;-65
2021/11/07 13:42:48;;;;;;;10.63;3.50;;;14.10;70.60;;;;;;5055189;28;20508;-64
2021/11/07 13:45:21;;;;;;;11.33;2.57;;;14.30;68.90;;;;;;5055324;28;20446;-64
2021/11/07 13:47:50;;;;;;;11.77;3.30;;;14.20;67.30;;;;;;5055016;28;20402;-64
2021/11/07 13:50:22;;;;;;;10.60;2.40;;;13.90;68.00;;;;;;5055199;28;20877;-64
2021/11/07 13:52:52;;;;;;;8.00;2.73;;;13.70;67.30;;;;;;5054976;28;20568;-65
2021/11/07 13:55:23;;;;;;;13.20;2.47;;;13.60;68.60;;;;;;5055015;28;20792;-64
2021/11/07 13:57:50;;;;;;;11.30;3.00;;;13.50;69.40;;;;;;5055106;28;20505;-64
2021/11/07 14:00:21;;;;;;;14.27;3.40;;;13.40;69.10;;;;;;5054827;28;20444;-65
2021/11/07 14:02:49;;;;;;;13.67;4.20;;;13.30;70.10;;;;;;5054977;28;20470;-64